Time;durP1;ratioP1;P1;durP2;ratioP2;P2;SDS_P1;SDS_P2;PMS_P1;PMS_P2;Temp;Humidity;BMP_temperature;BMP_pressure;BME280_temperature;BME280_humidity;BME280_pressure;Samples;Min_cycle;Max_cycle;Signal;HPM_P1;HPM_P2
2022/03/19 00:00:12;;;;;;;93.90;54.08;;;5.30;94.20;;;;;;6304351;22;20003;-65
2022/03/19 00:02:37;;;;;;;93.82;55.03;;;5.20;94.50;;;;;;6305394;22;20003;-65
2022/03/19 00:05:04;;;;;;;98.10;57.42;;;5.20;94.90;;;;;;6282521;22;20003;-66
2022/03/19 00:07:31;;;;;;;101.82;57.85;;;5.20;95.10;;;;;;6306184;22;20026;-66
2022/03/19 00:09:57;;;;;;;94.72;54.83;;;5.20;95.00;;;;;;6301734;22;20075;-65
2022/03/19 00:12:22;;;;;;;101.72;57.72;;;5.20;94.90;;;;;;6304209;22;20074;-66
2022/03/19 00:14:51;;;;;;;108.20;60.70;;;5.20;95.20;;;;;;6276624;22;19999;-66
2022/03/19 00:17:17;;;;;;;105.60;59.70;;;5.30;95.30;;;;;;6303546;22;19999;-66
2022/03/19 00:19:42;;;;;;;107.13;60.55;;;5.20;95.40;;;;;;6307732;22;20014;-66
2022/03/19 00:22:14;;;;;;;107.60;61.88;;;5.20;95.50;;;;;;6303572;22;20006;-67
2022/03/19 00:24:40;;;;;;;108.05;63.70;;;5.20;95.70;;;;;;6304634;22;20381;-65
2022/03/19 00:27:08;;;;;;;109.35;62.92;;;5.20;96.00;;;;;;6304044;22;20026;-66
2022/03/19 00:29:35;;;;;;;110.65;65.20;;;5.20;96.00;;;;;;6302757;22;20007;-66
2022/03/19 00:32:01;;;;;;;111.63;64.13;;;5.10;96.30;;;;;;6305227;22;20056;-66
2022/03/19 00:34:27;;;;;;;114.80;65.57;;;5.20;96.50;;;;;;6303857;22;20036;-66
2022/03/19 00:36:56;;;;;;;120.10;66.70;;;5.10;96.70;;;;;;6306713;22;20003;-66
2022/03/19 00:39:25;;;;;;;118.40;66.85;;;5.00;97.20;;;;;;6278387;22;20007;-65
2022/03/19 00:41:52;;;;;;;128.02;71.13;;;5.00;97.40;;;;;;6303646;22;20003;-66
2022/03/19 00:44:23;;;;;;;122.05;67.63;;;5.00;97.50;;;;;;6303335;22;20006;-66
2022/03/19 00:46:50;;;;;;;125.70;70.53;;;5.00;97.60;;;;;;6303104;22;19999;-66
2022/03/19 00:49:19;;;;;;;117.68;67.07;;;4.90;97.70;;;;;;6309193;22;20002;-67
2022/03/19 00:51:45;;;;;;;118.93;69.30;;;4.90;97.70;;;;;;6282472;22;20272;-66
2022/03/19 00:54:12;;;;;;;121.00;68.05;;;4.90;97.70;;;;;;6309244;22;20023;-66
2022/03/19 00:56:38;;;;;;;117.93;65.95;;;5.00;97.50;;;;;;6308192;22;20003;-66
2022/03/19 00:59:04;;;;;;;124.13;70.47;;;5.00;97.40;;;;;;6281845;22;20369;-66
2022/03/19 01:01:34;;;;;;;119.95;68.82;;;5.00;97.50;;;;;;6308407;22;20006;-66
2022/03/19 01:04:00;;;;;;;119.15;66.38;;;5.00;97.40;;;;;;6309654;22;20281;-66
2022/03/19 01:06:26;;;;;;;121.63;68.28;;;4.90;97.60;;;;;;6309414;22;20015;-66
2022/03/19 01:08:55;;;;;;;116.93;66.88;;;4.80;97.60;;;;;;6282838;22;20377;-66
2022/03/19 01:11:23;;;;;;;117.90;67.53;;;4.70;97.90;;;;;;6307413;22;20070;-67
2022/03/19 01:13:50;;;;;;;113.30;65.53;;;4.60;97.90;;;;;;6309176;22;20000;-66
2022/03/19 01:16:18;;;;;;;113.93;65.85;;;4.60;98.00;;;;;;6309649;22;20074;-66
2022/03/19 01:18:49;;;;;;;115.38;65.15;;;4.70;98.00;;;;;;6309989;22;20116;-66
2022/03/19 01:21:18;;;;;;;122.72;68.60;;;4.70;98.00;;;;;;6309355;22;20068;-66
2022/03/19 01:23:44;;;;;;;119.38;67.30;;;4.60;98.00;;;;;;6308881;22;20006;-65
2022/03/19 01:26:10;;;;;;;120.88;69.68;;;4.60;98.00;;;;;;6306881;22;20010;-66
2022/03/19 01:28:36;;;;;;;119.22;69.85;;;4.50;98.00;;;;;;6309081;22;19999;-67
2022/03/19 01:31:02;;;;;;;118.85;68.00;;;4.50;98.00;;;;;;6309331;22;20080;-66
2022/03/19 01:33:28;;;;;;;119.50;67.95;;;4.40;98.00;;;;;;6309357;22;20070;-66
2022/03/19 01:35:54;;;;;;;120.15;68.68;;;4.30;98.00;;;;;;6309378;22;20027;-66
2022/03/19 01:38:19;;;;;;;116.55;68.18;;;4.30;98.00;;;;;;6308766;22;20023;-66
2022/03/19 01:40:45;;;;;;;112.30;64.32;;;4.40;98.00;;;;;;6307754;22;20353;-66
2022/03/19 01:43:11;;;;;;;118.63;66.80;;;4.40;98.00;;;;;;6310341;22;20000;-67
2022/03/19 01:45:37;;;;;;;121.07;66.78;;;4.30;98.00;;;;;;6308765;22;19996;-66
2022/03/19 01:48:06;;;;;;;106.50;63.28;;;4.20;98.00;;;;;;6308922;22;20093;-66
2022/03/19 01:50:32;;;;;;;110.60;63.72;;;4.20;98.00;;;;;;6309263;22;20026;-66
2022/03/19 01:52:57;;;;;;;111.22;63.88;;;4.20;98.00;;;;;;6308777;22;20254;-66
2022/03/19 01:55:26;;;;;;;114.40;62.88;;;4.30;98.00;;;;;;6308121;22;20006;-66
2022/03/19 01:57:53;;;;;;;108.85;62.25;;;4.30;97.90;;;;;;6309061;22;20067;-67
2022/03/19 02:00:22;;;;;;;106.32;61.13;;;4.30;97.70;;;;;;6309189;22;20014;-66
2022/03/19 02:02:49;;;;;;;105.50;59.90;;;4.30;97.60;;;;;;6309255;22;20241;-66
2022/03/19 02:05:18;;;;;;;110.88;62.15;;;4.30;97.50;;;;;;6309173;22;20321;-66
2022/03/19 02:07:45;;;;;;;102.00;59.13;;;4.30;97.70;;;;;;6308172;22;20073;-66
2022/03/19 02:10:13;;;;;;;107.13;60.75;;;4.20;97.60;;;;;;6307788;22;20086;-66
2022/03/19 02:12:40;;;;;;;115.28;62.70;;;4.20;97.70;;;;;;6308401;22;20557;-66
2022/03/19 02:15:09;;;;;;;109.35;61.78;;;4.10;97.80;;;;;;6283197;22;20015;-66
2022/03/19 02:17:38;;;;;;;114.05;63.50;;;4.00;98.00;;;;;;6308526;22;20060;-67
2022/03/19 02:20:05;;;;;;;110.57;61.83;;;4.10;98.00;;;;;;6309732;22;20018;-65
2022/03/19 02:22:31;;;;;;;110.35;61.25;;;4.20;97.80;;;;;;6308408;22;20027;-66
2022/03/19 02:27:45;;;;;;;108.57;61.13;;;4.10;97.80;;;;;;6310122;22;20018;-66
2022/03/19 02:30:12;;;;;;;106.05;61.35;;;4.20;97.60;;;;;;6310775;22;20304;-66
2022/03/19 02:32:49;;;;;;;109.57;61.45;;;4.20;97.40;;;;;;6311029;22;19999;-67
2022/03/19 02:35:17;;;;;;;104.22;60.05;;;4.10;97.50;;;;;;6311215;22;19995;-66
2022/03/19 02:37:48;;;;;;;106.32;60.63;;;4.00;97.60;;;;;;6284205;22;19999;-67
2022/03/19 02:40:16;;;;;;;106.90;59.83;;;3.90;97.70;;;;;;6309726;22;19999;-66
2022/03/19 02:42:43;;;;;;;102.38;59.22;;;3.80;97.90;;;;;;6310957;22;20019;-64
2022/03/19 02:45:09;;;;;;;109.75;61.00;;;3.60;98.00;;;;;;6310952;22;20007;-64
2022/03/19 02:47:56;;;;;;;110.10;61.83;;;3.60;98.00;;;;;;6311097;22;20003;-65
2022/03/19 02:50:21;;;;;;;103.22;58.58;;;3.70;98.00;;;;;;6310653;22;20010;-65
2022/03/19 02:52:50;;;;;;;100.68;59.25;;;3.80;98.00;;;;;;6310491;22;20048;-65
2022/03/19 02:55:18;;;;;;;104.50;58.95;;;3.80;97.80;;;;;;6309113;22;20010;-65
2022/03/19 02:57:43;;;;;;;107.47;58.63;;;3.70;97.80;;;;;;6310775;22;20019;-66
2022/03/19 03:00:09;;;;;;;111.50;59.83;;;3.60;97.90;;;;;;6283900;22;20011;-65
2022/03/19 03:02:35;;;;;;;111.32;60.88;;;3.50;98.00;;;;;;6311411;22;20045;-65
2022/03/19 03:05:04;;;;;;;107.05;59.70;;;3.30;98.00;;;;;;6310680;22;20057;-67
2022/03/19 03:07:29;;;;;;;113.72;62.25;;;3.40;98.00;;;;;;6310548;22;20038;-67
2022/03/19 03:09:55;;;;;;;104.28;59.45;;;3.30;98.00;;;;;;6309700;22;19999;-67
2022/03/19 03:12:21;;;;;;;110.28;62.13;;;3.40;98.00;;;;;;6310609;22;20002;-67
2022/03/19 03:14:46;;;;;;;106.90;59.53;;;3.40;98.00;;;;;;6311087;22;20084;-67
2022/03/19 03:17:12;;;;;;;103.30;59.30;;;3.50;98.00;;;;;;6310084;22;20345;-67
2022/03/19 03:19:37;;;;;;;104.38;58.42;;;3.50;98.00;;;;;;6310897;22;19999;-67
2022/03/19 03:22:03;;;;;;;101.40;58.45;;;3.50;98.00;;;;;;6309594;22;20030;-67
2022/03/19 03:24:29;;;;;;;99.38;54.90;;;3.50;98.00;;;;;;6309790;22;20070;-66
2022/03/19 03:26:57;;;;;;;103.68;57.72;;;3.50;97.80;;;;;;6309393;22;20052;-66
2022/03/19 03:29:23;;;;;;;103.90;56.73;;;3.40;97.70;;;;;;6309809;22;20003;-65
2022/03/19 03:31:51;;;;;;;97.80;55.50;;;3.40;97.80;;;;;;6309021;22;20643;-66
2022/03/19 03:34:17;;;;;;;102.38;56.80;;;3.30;97.90;;;;;;6310986;22;20006;-68
2022/03/19 03:36:42;;;;;;;98.75;57.10;;;3.20;98.00;;;;;;6282004;22;20000;-65
2022/03/19 03:39:13;;;;;;;99.43;55.50;;;3.30;98.00;;;;;;6310356;22;20010;-66
2022/03/19 03:41:39;;;;;;;99.40;56.58;;;3.20;97.80;;;;;;6306785;22;20013;-66
2022/03/19 03:44:05;;;;;;;97.70;56.65;;;3.20;97.90;;;;;;6309491;22;20070;-66
2022/03/19 03:46:30;;;;;;;100.45;53.90;;;3.20;98.00;;;;;;6309270;22;20090;-65
2022/03/19 03:48:56;;;;;;;96.63;57.15;;;3.10;97.80;;;;;;6308890;22;20003;-64
2022/03/19 03:51:24;;;;;;;94.32;53.33;;;3.00;98.00;;;;;;6308962;22;20023;-65
2022/03/19 03:53:53;;;;;;;95.75;55.17;;;3.00;98.00;;;;;;6310082;22;20019;-65
2022/03/19 03:56:18;;;;;;;97.40;56.00;;;2.90;98.00;;;;;;6308476;22;20038;-66
2022/03/19 03:58:45;;;;;;;101.53;57.92;;;2.70;98.00;;;;;;6309709;22;19995;-65
2022/03/19 04:01:11;;;;;;;101.50;58.08;;;2.60;98.00;;;;;;6310108;22;20003;-66
2022/03/19 04:03:37;;;;;;;105.88;58.47;;;2.50;98.00;;;;;;6308919;22;20004;-67
2022/03/19 04:06:03;;;;;;;97.47;55.35;;;2.50;98.00;;;;;;6308731;22;20022;-66
2022/03/19 04:08:29;;;;;;;103.00;58.35;;;2.50;98.00;;;;;;6307852;22;20011;-65
2022/03/19 04:10:55;;;;;;;99.60;55.78;;;2.40;98.00;;;;;;6307333;22;20007;-65
2022/03/19 04:13:21;;;;;;;99.38;55.30;;;2.30;98.00;;;;;;6308205;22;19995;-65
2022/03/19 04:15:46;;;;;;;103.82;56.47;;;2.20;98.00;;;;;;6308226;22;19999;-66
2022/03/19 04:18:15;;;;;;;105.85;59.72;;;2.10;98.00;;;;;;6308748;22;20006;-66
2022/03/19 04:20:41;;;;;;;111.32;59.42;;;2.00;98.00;;;;;;6308399;22;20027;-67
2022/03/19 04:23:06;;;;;;;106.68;59.13;;;1.90;98.00;;;;;;6281637;22;20077;-66
2022/03/19 04:25:32;;;;;;;113.88;62.08;;;1.90;98.00;;;;;;6307685;22;20027;-65
2022/03/19 04:27:58;;;;;;;108.88;60.00;;;1.70;98.00;;;;;;6308529;22;19999;-65
2022/03/19 04:30:34;;;;;;;111.30;62.40;;;1.60;98.00;;;;;;6281662;22;20011;-66
2022/03/19 04:33:04;;;;;;;117.07;61.88;;;1.60;98.00;;;;;;6308779;22;19999;-67
2022/03/19 04:38:20;;;;;;;119.63;64.10;;;1.40;98.00;;;;;;6309721;22;20049;-67
2022/03/19 04:40:47;;;;;;;114.07;61.50;;;1.20;98.00;;;;;;6307616;22;19999;-66
2022/03/19 04:43:13;;;;;;;118.15;62.35;;;1.10;97.90;;;;;;6309509;22;20309;-67
2022/03/19 04:45:40;;;;;;;114.10;62.28;;;1.10;97.10;;;;;;6309789;22;20007;-65
2022/03/19 04:48:07;;;;;;;121.72;64.13;;;1.10;96.80;;;;;;6308295;22;20406;-66
2022/03/19 04:50:37;;;;;;;132.48;68.97;;;1.10;97.10;;;;;;6308686;22;20088;-66
2022/03/19 04:53:05;;;;;;;131.18;70.57;;;1.10;96.70;;;;;;6309432;22;20003;-67
2022/03/19 04:55:31;;;;;;;121.20;66.45;;;0.90;97.10;;;;;;6306560;22;20321;-67
2022/03/19 04:57:59;;;;;;;121.28;63.55;;;0.90;96.30;;;;;;6308326;22;19999;-66
2022/03/19 05:00:25;;;;;;;112.32;60.85;;;0.80;96.50;;;;;;6307181;22;20003;-67
2022/03/19 05:02:51;;;;;;;122.57;65.97;;;0.80;96.00;;;;;;6307941;22;20380;-66
2022/03/19 05:05:17;;;;;;;135.43;71.10;;;0.70;96.30;;;;;;6307990;22;19999;-66
2022/03/19 05:07:42;;;;;;;139.25;72.60;;;0.60;96.50;;;;;;6307391;22;20026;-66
2022/03/19 05:12:54;;;;;;;142.73;70.72;;;0.50;95.60;;;;;;6307984;22;20006;-65
2022/03/19 05:15:20;;;;;;;130.40;68.55;;;0.40;95.30;;;;;;6308054;22;20004;-65
2022/03/19 05:17:46;;;;;;;118.13;65.03;;;0.40;95.60;;;;;;6308231;22;20018;-66
2022/03/19 05:20:13;;;;;;;125.85;65.35;;;0.30;94.70;;;;;;6306701;22;20311;-65
2022/03/19 05:22:39;;;;;;;134.10;68.88;;;0.40;95.10;;;;;;6307870;22;20376;-66
2022/03/19 05:25:06;;;;;;;127.65;68.85;;;0.40;95.50;;;;;;6306369;22;20038;-67
2022/03/19 05:27:35;;;;;;;112.57;59.97;;;0.50;95.00;;;;;;6307862;22;19999;-65
2022/03/19 05:30:05;;;;;;;121.20;64.93;;;0.60;95.70;;;;;;6307848;22;19999;-66
2022/03/19 05:32:31;;;;;;;111.13;60.05;;;0.50;96.30;;;;;;6308350;22;20074;-67
2022/03/19 05:34:56;;;;;;;132.02;70.45;;;0.30;96.00;;;;;;6308285;22;20030;-67
2022/03/19 05:37:25;;;;;;;125.18;66.72;;;0.40;95.30;;;;;;6308658;22;20424;-67
2022/03/19 05:39:55;;;;;;;114.75;62.30;;;0.40;95.30;;;;;;6279505;22;20482;-66
2022/03/19 05:42:21;;;;;;;121.18;63.45;;;0.50;95.70;;;;;;6308040;22;20303;-66
2022/03/19 05:44:47;;;;;;;123.55;63.95;;;0.50;96.20;;;;;;6307677;22;20026;-66
2022/03/19 05:47:13;;;;;;;118.72;62.42;;;0.40;95.70;;;;;;6307520;22;20264;-66
2022/03/19 05:49:40;;;;;;;114.78;61.58;;;0.60;95.40;;;;;;6280909;22;20007;-65
2022/03/19 05:52:06;;;;;;;120.40;64.53;;;0.60;96.10;;;;;;6307821;22;19999;-65
2022/03/19 05:54:32;;;;;;;122.05;64.47;;;0.60;96.10;;;;;;6307412;22;20070;-65
2022/03/19 05:56:58;;;;;;;108.88;60.15;;;0.60;96.00;;;;;;6309505;22;20037;-65
2022/03/19 05:59:23;;;;;;;119.57;60.95;;;0.70;96.10;;;;;;6307451;22;20356;-65
2022/03/19 06:01:49;;;;;;;118.43;62.47;;;0.70;96.70;;;;;;6309215;22;20026;-67
2022/03/19 06:04:15;;;;;;;104.47;57.75;;;0.50;96.80;;;;;;6309471;22;19999;-67
2022/03/19 06:06:41;;;;;;;125.40;66.15;;;0.40;96.20;;;;;;6309812;22;20349;-67
2022/03/19 06:09:10;;;;;;;107.40;60.28;;;0.30;96.70;;;;;;6310070;22;19999;-68
2022/03/19 06:11:36;;;;;;;112.15;60.85;;;0.40;95.50;;;;;;6308195;22;20003;-68
2022/03/19 06:14:02;;;;;;;128.93;67.90;;;0.40;96.40;;;;;;6310086;22;20056;-68
2022/03/19 06:16:28;;;;;;;106.32;59.00;;;0.30;96.20;;;;;;6309478;22;20006;-67
2022/03/19 06:18:53;;;;;;;109.97;59.92;;;0.40;95.40;;;;;;6309654;22;20003;-66
2022/03/19 06:21:22;;;;;;;107.43;58.75;;;0.40;95.40;;;;;;6309404;22;20013;-67
2022/03/19 06:23:52;;;;;;;99.28;54.25;;;0.50;95.60;;;;;;6309208;22;20010;-68
2022/03/19 06:26:20;;;;;;;97.85;53.67;;;0.60;95.10;;;;;;6307613;22;20365;-66
2022/03/19 06:28:46;;;;;;;92.78;52.55;;;0.80;96.40;;;;;;6309404;22;20034;-67
2022/03/19 06:31:11;;;;;;;99.28;56.10;;;1.00;97.10;;;;;;6309472;22;19999;-66
2022/03/19 06:33:41;;;;;;;102.43;57.97;;;1.10;98.00;;;;;;6309612;22;19999;-67
2022/03/19 06:38:53;;;;;;;104.72;57.17;;;1.30;98.00;;;;;;6308982;22;20112;-67
2022/03/19 06:41:23;;;;;;;102.38;56.60;;;1.40;98.00;;;;;;6307777;22;20011;-67
2022/03/19 06:43:49;;;;;;;102.60;57.92;;;1.50;98.00;;;;;;6308811;22;20007;-66
2022/03/19 06:46:18;;;;;;;96.80;56.38;;;1.60;98.00;;;;;;6307168;22;20010;-68
2022/03/19 06:48:49;;;;;;;95.60;54.70;;;1.70;98.00;;;;;;6281597;22;20041;-67
2022/03/19 06:51:16;;;;;;;87.97;51.33;;;1.90;98.00;;;;;;6308625;22;20010;-66
2022/03/19 06:53:42;;;;;;;96.00;54.63;;;2.00;98.00;;;;;;6281823;22;20049;-67
2022/03/19 06:56:08;;;;;;;87.63;52.28;;;2.10;98.00;;;;;;6307502;22;20004;-67
2022/03/19 06:58:34;;;;;;;93.32;55.95;;;2.30;98.00;;;;;;6308285;22;20376;-67
2022/03/19 07:01:03;;;;;;;82.38;50.72;;;2.40;98.00;;;;;;6306748;22;20034;-67
2022/03/19 07:03:32;;;;;;;81.55;48.15;;;2.70;98.00;;;;;;6309764;22;20037;-67
2022/03/19 07:05:58;;;;;;;84.57;48.47;;;2.80;98.00;;;;;;6311083;22;20042;-67
2022/03/19 07:08:24;;;;;;;85.03;48.83;;;2.90;98.00;;;;;;6311591;22;20000;-68
2022/03/19 07:10:49;;;;;;;77.47;46.53;;;3.00;98.00;;;;;;6310021;22;20392;-67
2022/03/19 07:13:15;;;;;;;79.15;44.67;;;3.20;97.90;;;;;;6311078;22;20021;-68
2022/03/19 07:15:41;;;;;;;78.03;46.13;;;3.50;97.30;;;;;;6310015;22;19999;-66
2022/03/19 07:18:07;;;;;;;76.60;44.22;;;3.60;96.60;;;;;;6311420;22;19999;-67
2022/03/19 07:20:33;;;;;;;69.53;41.92;;;3.70;95.50;;;;;;6310834;22;20082;-67
2022/03/19 07:23:07;;;;;;;66.05;42.50;;;3.80;94.90;;;;;;6311377;22;20062;-66
2022/03/19 07:25:35;;;;;;;70.10;43.55;;;4.00;94.80;;;;;;6309099;22;20027;-66
2022/03/19 07:28:04;;;;;;;69.70;42.45;;;4.20;94.10;;;;;;6310102;22;20031;-66
2022/03/19 07:30:30;;;;;;;65.78;41.15;;;4.40;93.00;;;;;;6310751;22;20003;-67
2022/03/19 07:32:56;;;;;;;69.22;41.75;;;4.60;92.00;;;;;;6311022;22;20006;-67
2022/03/19 07:35:22;;;;;;;68.13;40.78;;;4.80;91.50;;;;;;6310492;22;20098;-66
2022/03/19 07:37:48;;;;;;;71.65;43.20;;;5.00;91.10;;;;;;6284013;22;20027;-67
2022/03/19 07:41:45;;;;;;;68.80;41.15;;;5.20;89.30;;;;;;6309947;22;20007;-67
2022/03/19 07:43:06;;;;;;;67.07;42.17;;;5.40;88.70;;;;;;6310837;22;20106;-66
2022/03/19 07:45:32;;;;;;;69.50;40.35;;;5.70;88.80;;;;;;6309947;22;19999;-67
2022/03/19 07:47:58;;;;;;;64.05;40.05;;;5.80;86.90;;;;;;6309898;22;20052;-66
2022/03/19 07:50:27;;;;;;;69.20;40.60;;;6.00;85.40;;;;;;6310172;22;19995;-66
2022/03/19 07:52:53;;;;;;;71.07;40.70;;;6.20;85.10;;;;;;6310159;22;20023;-66
2022/03/19 07:55:19;;;;;;;66.45;41.80;;;6.30;84.80;;;;;;6308332;22;20108;-66
2022/03/19 07:57:45;;;;;;;60.60;39.33;;;6.50;84.40;;;;;;6309661;22;20137;-67
2022/03/19 08:00:12;;;;;;;63.83;40.72;;;6.60;83.80;;;;;;6309971;22;20035;-66
2022/03/19 08:02:39;;;;;;;66.88;42.00;;;6.60;84.30;;;;;;6311036;22;20052;-66
2022/03/19 08:05:07;;;;;;;63.13;41.65;;;6.70;83.30;;;;;;6310518;22;19999;-66
2022/03/19 08:07:34;;;;;;;67.32;43.17;;;6.60;85.00;;;;;;6310552;22;20295;-67
2022/03/19 08:09:59;;;;;;;63.13;40.80;;;6.50;85.10;;;;;;6309660;22;20059;-67
2022/03/19 08:12:26;;;;;;;69.13;44.08;;;6.40;84.70;;;;;;6310698;22;20326;-66
2022/03/19 08:14:55;;;;;;;72.47;44.10;;;6.40;85.70;;;;;;6310827;22;20010;-68
2022/03/19 08:17:20;;;;;;;64.55;40.22;;;6.20;87.20;;;;;;6282997;22;20660;-66
2022/03/19 08:19:49;;;;;;;68.68;41.78;;;6.20;86.90;;;;;;6310811;22;20070;-66
2022/03/19 08:22:16;;;;;;;70.60;43.00;;;6.10;87.80;;;;;;6310677;22;20257;-67
2022/03/19 08:24:42;;;;;;;63.63;40.85;;;6.10;88.10;;;;;;6309102;22;20002;-66
2022/03/19 08:27:11;;;;;;;67.72;41.08;;;6.40;88.00;;;;;;6309991;22;20235;-66
2022/03/19 08:29:36;;;;;;;59.53;38.90;;;7.10;86.00;;;;;;6310816;22;19996;-68
2022/03/19 08:32:02;;;;;;;61.40;38.58;;;7.70;84.30;;;;;;6310456;22;20002;-67
2022/03/19 08:34:28;;;;;;;60.92;39.38;;;8.10;82.60;;;;;;6309719;22;20397;-67
2022/03/19 08:36:57;;;;;;;66.22;38.67;;;8.50;81.10;;;;;;6204050;22;19995;-66
2022/03/19 08:42:06;;;;;;;;;;;9.00;79.80;;;;;;6311721;22;20285;-66
2022/03/19 08:44:32;;;;;;;54.03;35.45;;;9.20;78.80;;;;;;6311053;22;19930;-65
2022/03/19 08:47:01;;;;;;;60.40;36.30;;;9.70;79.20;;;;;;6311415;22;20422;-64
2022/03/19 08:49:27;;;;;;;54.60;36.67;;;10.40;76.70;;;;;;6310784;22;20007;-64
2022/03/19 08:51:53;;;;;;;55.60;35.90;;;10.60;74.60;;;;;;6310800;22;20003;-65
2022/03/19 08:54:19;;;;;;;54.33;37.28;;;10.80;74.00;;;;;;6311019;22;19995;-65
2022/03/19 08:56:47;;;;;;;53.42;35.33;;;10.50;74.60;;;;;;6309694;22;20000;-67
2022/03/19 08:59:16;;;;;;;55.50;35.25;;;10.70;73.90;;;;;;6310464;22;19995;-66
2022/03/19 09:01:43;;;;;;;53.25;35.45;;;10.80;73.90;;;;;;6310737;22;20057;-66
2022/03/19 09:04:11;;;;;;;57.08;36.60;;;10.70;73.90;;;;;;6283648;22;20007;-66
2022/03/19 09:06:38;;;;;;;53.90;36.58;;;10.70;73.40;;;;;;6310421;22;20019;-65
2022/03/19 09:09:05;;;;;;;54.20;35.15;;;10.90;73.50;;;;;;6309972;22;20070;-67
2022/03/19 09:11:35;;;;;;;54.15;34.78;;;11.30;72.30;;;;;;6309227;22;20053;-67
2022/03/19 09:14:04;;;;;;;53.55;35.03;;;11.40;71.00;;;;;;6311076;22;20392;-65
2022/03/19 09:16:31;;;;;;;51.40;34.70;;;11.30;72.00;;;;;;6310715;22;19995;-65
2022/03/19 09:18:56;;;;;;;49.97;34.05;;;11.60;71.50;;;;;;6310623;22;20045;-66
2022/03/19 09:21:22;;;;;;;50.45;34.22;;;11.70;70.20;;;;;;6310791;22;20007;-66
2022/03/19 09:23:49;;;;;;;51.35;33.67;;;11.70;70.20;;;;;;6309358;22;20007;-66
2022/03/19 09:26:15;;;;;;;54.45;35.38;;;11.80;69.50;;;;;;6308749;22;20007;-66
2022/03/19 09:28:45;;;;;;;50.00;33.50;;;12.00;70.60;;;;;;6310487;22;20078;-66
2022/03/19 09:31:12;;;;;;;52.42;33.33;;;12.00;69.70;;;;;;6310631;22;20082;-66
2022/03/19 09:33:39;;;;;;;49.28;32.40;;;12.20;68.30;;;;;;6310149;22;20006;-65
2022/03/19 09:36:05;;;;;;;48.92;32.88;;;12.30;67.80;;;;;;6311733;22;20002;-66
2022/03/19 09:38:31;;;;;;;47.92;31.00;;;12.40;68.70;;;;;;6312401;22;20003;-66
2022/03/19 09:40:58;;;;;;;48.33;31.98;;;12.60;67.30;;;;;;6310942;22;20375;-66
2022/03/19 09:43:24;;;;;;;45.45;30.52;;;13.20;67.10;;;;;;6312477;22;20364;-66
2022/03/19 09:45:53;;;;;;;44.47;28.85;;;13.40;66.70;;;;;;6312792;22;20078;-66
2022/03/19 09:48:20;;;;;;;47.50;32.00;;;13.70;64.70;;;;;;6312526;22;20010;-66
2022/03/19 09:50:50;;;;;;;44.15;30.23;;;13.30;64.80;;;;;;6312590;22;20003;-66
2022/03/19 09:53:19;;;;;;;46.47;29.95;;;13.00;65.90;;;;;;6312724;22;20003;-66
2022/03/19 09:55:45;;;;;;;41.72;29.33;;;13.20;65.90;;;;;;6311225;22;20025;-66
2022/03/19 09:58:12;;;;;;;45.70;29.05;;;13.10;65.70;;;;;;6312838;22;19999;-66
2022/03/19 10:00:38;;;;;;;45.72;29.30;;;13.10;65.10;;;;;;6313099;22;20003;-67
2022/03/19 10:03:09;;;;;;;44.97;29.17;;;13.40;64.90;;;;;;6312231;22;20115;-66
2022/03/19 10:08:39;;;;;;;42.72;28.50;;;13.90;65.10;;;;;;6312640;22;20017;-66
2022/03/19 10:11:11;;;;;;;40.20;27.17;;;13.80;63.60;;;;;;6310772;22;20011;-66
2022/03/19 10:13:44;;;;;;;38.08;26.77;;;14.00;64.80;;;;;;6312423;22;20000;-66
2022/03/19 10:16:24;;;;;;;40.58;27.73;;;14.80;61.70;;;;;;6311834;22;20011;-65
2022/03/19 10:19:00;;;;;;;38.50;26.02;;;14.20;61.70;;;;;;6311735;22;20003;-65
2022/03/19 10:21:28;;;;;;;36.50;25.45;;;13.80;63.50;;;;;;6312293;22;20269;-65
2022/03/19 10:23:56;;;;;;;39.28;27.17;;;14.10;63.10;;;;;;6312475;22;20000;-65
2022/03/19 10:26:33;;;;;;;39.58;27.15;;;14.40;61.80;;;;;;6310912;22;20010;-65
2022/03/19 10:29:09;;;;;;;36.22;25.10;;;14.50;60.80;;;;;;6312018;22;20007;-63
2022/03/19 10:31:46;;;;;;;38.80;26.42;;;14.20;61.70;;;;;;6312529;22;20008;-64
2022/03/19 10:34:14;;;;;;;39.60;26.45;;;14.10;60.10;;;;;;6312326;22;20007;-64
2022/03/19 10:36:41;;;;;;;37.45;25.52;;;13.80;61.60;;;;;;6311965;22;19995;-66
2022/03/19 10:39:19;;;;;;;39.17;26.08;;;14.30;61.10;;;;;;6312326;22;20000;-64
2022/03/19 10:41:45;;;;;;;34.90;24.95;;;14.10;60.80;;;;;;6310719;22;20003;-65
2022/03/19 10:44:16;;;;;;;33.08;24.30;;;14.20;59.30;;;;;;6311735;22;20316;-64
2022/03/19 10:46:46;;;;;;;35.28;24.52;;;14.00;59.20;;;;;;6311879;22;20617;-66
2022/03/19 10:49:13;;;;;;;40.72;26.48;;;14.20;61.60;;;;;;6311438;22;20007;-65
2022/03/19 10:51:40;;;;;;;40.22;26.67;;;13.90;59.00;;;;;;6311320;22;20004;-66
2022/03/19 10:54:07;;;;;;;38.15;26.08;;;13.40;60.50;;;;;;6311454;22;20238;-65
2022/03/19 10:56:33;;;;;;;39.88;25.60;;;13.60;59.70;;;;;;6309497;22;20003;-65
2022/03/19 10:58:59;;;;;;;41.38;26.40;;;13.70;60.50;;;;;;6311967;22;20004;-63
2022/03/19 11:01:27;;;;;;;35.63;25.48;;;14.10;61.40;;;;;;6311457;22;20003;-65
2022/03/19 11:03:54;;;;;;;38.20;25.10;;;14.20;60.00;;;;;;6283590;22;20399;-65
2022/03/19 11:06:20;;;;;;;38.47;25.10;;;13.70;60.00;;;;;;6310736;22;20013;-65
2022/03/19 11:08:47;;;;;;;39.97;26.95;;;13.90;61.50;;;;;;6310471;22;20078;-65
2022/03/19 11:11:18;;;;;;;41.83;27.38;;;14.00;60.60;;;;;;6309540;22;19999;-65
2022/03/19 11:13:49;;;;;;;37.00;26.05;;;13.70;61.10;;;;;;6310698;22;20014;-64
2022/03/19 11:16:15;;;;;;;39.60;26.48;;;13.40;61.50;;;;;;6310416;22;20033;-65
2022/03/19 11:18:45;;;;;;;42.03;28.55;;;13.70;61.30;;;;;;6311593;22;19995;-65
2022/03/19 11:21:14;;;;;;;37.10;25.90;;;13.60;60.10;;;;;;6312198;22;20007;-66
2022/03/19 11:24:25;;;;;;;38.45;27.20;;;13.40;62.50;;;;;;6310958;22;20003;-64
2022/03/19 11:26:53;;;;;;;42.65;27.55;;;13.70;61.90;;;;;;6309735;22;20441;-65
2022/03/19 11:29:19;;;;;;;43.67;27.67;;;13.80;61.00;;;;;;6311071;22;20391;-65
2022/03/19 11:32:06;;;;;;;42.20;28.35;;;13.30;61.60;;;;;;6311691;22;20079;-65
2022/03/19 11:34:47;;;;;;;40.20;27.23;;;13.60;61.60;;;;;;6311685;22;20265;-64
2022/03/19 11:37:13;;;;;;;45.78;26.98;;;13.20;61.40;;;;;;6311360;22;20003;-65
2022/03/19 11:40:01;;;;;;;39.45;25.95;;;12.90;62.20;;;;;;6309905;22;20265;-64
2022/03/19 11:42:31;;;;;;;40.15;27.70;;;12.90;61.30;;;;;;6311174;22;20003;-64
2022/03/19 11:45:07;;;;;;;42.33;28.08;;;13.30;61.30;;;;;;6311296;22;20002;-64
2022/03/19 11:47:34;;;;;;;38.00;26.08;;;13.30;61.10;;;;;;6311648;22;20018;-64
2022/03/19 11:50:04;;;;;;;39.10;26.80;;;13.10;60.90;;;;;;6310539;22;20003;-65
2022/03/19 11:52:29;;;;;;;41.03;27.65;;;13.50;61.60;;;;;;6311106;22;20013;-66
2022/03/19 11:55:02;;;;;;;37.38;25.58;;;13.30;60.80;;;;;;6309463;22;20094;-66
2022/03/19 11:57:46;;;;;;;39.88;26.42;;;13.20;61.30;;;;;;6311110;22;19999;-66
2022/03/19 12:00:16;;;;;;;38.10;25.10;;;13.50;60.10;;;;;;6310892;22;20003;-66
2022/03/19 12:03:04;;;;;;;35.42;24.77;;;13.60;59.90;;;;;;6311157;22;20021;-66
2022/03/19 12:05:31;;;;;;;38.08;26.30;;;13.50;59.10;;;;;;6311211;22;20005;-65
2022/03/19 12:08:08;;;;;;;39.28;25.63;;;13.60;59.80;;;;;;6310792;22;20015;-66
2022/03/19 12:10:54;;;;;;;38.78;25.17;;;13.60;59.80;;;;;;6309253;22;20037;-66
2022/03/19 12:13:27;;;;;;;41.58;26.70;;;14.10;60.20;;;;;;6310426;22;20000;-66
2022/03/19 12:16:04;;;;;;;36.50;24.55;;;14.50;59.50;;;;;;6310825;22;19999;-66
2022/03/19 12:18:38;;;;;;;36.20;24.08;;;14.40;56.80;;;;;;6284091;22;20223;-66
2022/03/19 12:21:10;;;;;;;39.83;23.85;;;14.50;58.70;;;;;;6310819;22;20003;-65
2022/03/19 12:23:59;;;;;;;37.13;24.83;;;14.70;58.00;;;;;;6311143;22;20003;-65
2022/03/19 12:26:35;;;;;;;35.88;25.10;;;14.90;57.80;;;;;;6292589;22;20007;-66
2022/03/19 12:29:03;;;;;;;42.28;28.00;;;14.30;58.80;;;;;;6310875;22;20273;-66
2022/03/19 12:31:31;;;;;;;41.17;26.20;;;14.30;60.30;;;;;;6310316;22;20064;-65
2022/03/19 12:33:57;;;;;;;37.92;26.23;;;14.40;59.60;;;;;;6310569;22;20082;-66
2022/03/19 12:36:23;;;;;;;40.40;28.20;;;14.10;59.30;;;;;;6309092;22;20046;-66
2022/03/19 12:38:50;;;;;;;38.13;25.73;;;13.70;61.10;;;;;;6307430;22;19996;-65
2022/03/19 12:41:23;;;;;;;36.47;25.60;;;13.40;62.30;;;;;;6306474;22;20363;-65
2022/03/19 12:43:54;;;;;;;36.38;24.60;;;13.90;60.50;;;;;;6282172;22;20010;-65
2022/03/19 12:46:33;;;;;;;37.55;25.60;;;13.70;59.80;;;;;;6307245;22;20042;-66
2022/03/19 12:49:04;;;;;;;35.83;25.83;;;13.20;60.90;;;;;;6309448;22;20361;-66
2022/03/19 12:51:32;;;;;;;36.13;24.00;;;13.10;61.40;;;;;;6308306;22;20010;-66